createdAt,value
2022-10-21T00:01:36.839Z,28.73
2022-10-21T00:04:26.557Z,29.52
2022-10-21T00:07:16.586Z,29.83
2022-10-21T00:10:07.595Z,27.25
2022-10-21T00:12:57.562Z,26.95
2022-10-21T00:15:59.538Z,27.85
2022-10-21T00:18:49.659Z,31.92
2022-10-21T00:21:40.986Z,38.03
2022-10-21T00:24:31.050Z,27.58
2022-10-21T00:27:20.922Z,30.73
2022-10-21T00:30:12.361Z,27.98
2022-10-21T00:33:03.248Z,37.00
2022-10-21T00:35:56.265Z,31.17
2022-10-21T00:38:48.437Z,46.40
2022-10-21T00:41:38.682Z,35.20
2022-10-21T00:44:28.789Z,30.80
2022-10-21T00:47:22.468Z,31.67
2022-10-21T00:50:25.201Z,34.72
2022-10-21T00:53:16.446Z,36.50
2022-10-21T00:56:15.415Z,37.95
2022-10-21T00:59:07.038Z,41.33
2022-10-21T01:01:57.440Z,39.00
2022-10-21T01:04:51.937Z,45.95
2022-10-21T01:07:42.357Z,42.22
2022-10-21T01:10:32.633Z,45.50
2022-10-21T01:14:00.452Z,36.67
2022-10-21T01:17:11.522Z,38.22
2022-10-21T01:20:45.048Z,41.38
2022-10-21T01:23:57.577Z,37.70
2022-10-21T01:27:05.443Z,39.05
2022-10-21T01:30:26.222Z,39.75
2022-10-21T01:33:50.933Z,33.70
2022-10-21T01:36:49.939Z,38.00
2022-10-21T01:39:51.874Z,39.72
2022-10-21T01:42:48.057Z,38.53
2022-10-21T01:45:52.185Z,35.88
2022-10-21T01:51:37.607Z,36.72
2022-10-21T01:54:33.870Z,40.67
2022-10-21T01:57:28.049Z,45.65
2022-10-21T02:00:19.153Z,46.28
2022-10-21T02:03:12.069Z,39.03
2022-10-21T02:06:02.290Z,42.47
2022-10-21T02:08:52.635Z,35.63
2022-10-21T02:11:45.823Z,42.28
2022-10-21T02:14:41.707Z,44.93
2022-10-21T02:17:32.519Z,50.97
2022-10-21T02:20:26.139Z,46.25
2022-10-21T02:23:19.417Z,53.20
2022-10-21T02:26:10.491Z,44.03
2022-10-21T02:29:01.531Z,48.10
2022-10-21T02:31:54.544Z,41.15
2022-10-21T02:35:18.224Z,44.42
2022-10-21T02:38:28.888Z,43.70
2022-10-21T02:41:23.327Z,46.70
2022-10-21T02:47:04.208Z,41.95
2022-10-21T02:49:54.799Z,38.60
2022-10-21T02:52:44.997Z,39.80
2022-10-21T02:55:34.881Z,43.88
2022-10-21T02:58:24.738Z,44.47
2022-10-21T03:01:14.929Z,43.05
2022-10-21T03:04:05.450Z,43.47
2022-10-21T03:06:55.397Z,41.72
2022-10-21T03:09:45.573Z,40.85
2022-10-21T03:12:35.544Z,37.10
2022-10-21T03:15:25.793Z,34.03
2022-10-21T03:18:16.077Z,36.03
2022-10-21T03:21:06.278Z,36.92
2022-10-21T03:23:56.368Z,29.38
2022-10-21T03:26:46.245Z,38.28
2022-10-21T03:29:36.141Z,33.72
2022-10-21T03:32:26.096Z,30.17
2022-10-21T03:35:16.210Z,39.42
2022-10-21T03:38:06.494Z,30.73
2022-10-21T03:40:56.542Z,35.83
2022-10-21T03:43:46.239Z,34.88
2022-10-21T03:46:36.029Z,37.40
2022-10-21T03:49:25.918Z,34.47
2022-10-21T03:52:16.052Z,32.63
2022-10-21T03:55:06.922Z,34.10
2022-10-21T03:57:57.075Z,34.55
2022-10-21T04:00:51.695Z,32.03
2022-10-21T04:03:41.780Z,28.15
2022-10-21T04:06:31.942Z,31.80
2022-10-21T04:09:21.917Z,34.67
2022-10-21T04:12:12.717Z,27.00
2022-10-21T04:15:04.350Z,33.03
2022-10-21T04:17:54.359Z,39.88
2022-10-21T04:20:44.240Z,28.75
2022-10-21T04:23:34.459Z,38.95
2022-10-21T04:26:24.447Z,33.50
2022-10-21T04:29:14.250Z,37.88
2022-10-21T04:32:04.319Z,32.92
2022-10-21T04:34:54.579Z,29.92
2022-10-21T04:37:44.485Z,35.40
2022-10-21T04:40:34.767Z,26.55
2022-10-21T04:43:26.109Z,23.98
2022-10-21T04:46:17.038Z,34.15
2022-10-21T04:49:06.900Z,33.13
2022-10-21T04:51:56.845Z,33.22
2022-10-21T04:54:46.949Z,34.92
2022-10-21T04:57:37.017Z,33.33
2022-10-21T05:00:26.868Z,29.27
2022-10-21T05:03:17.149Z,32.00
2022-10-21T05:06:07.332Z,28.25
2022-10-21T05:08:57.406Z,22.15
2022-10-21T05:11:47.394Z,28.88
2022-10-21T05:14:37.467Z,36.05
2022-10-21T05:17:27.663Z,26.90
2022-10-21T05:20:17.920Z,32.20
2022-10-21T05:23:08.159Z,36.13
2022-10-21T05:25:58.332Z,30.85
2022-10-21T05:28:48.310Z,27.30
2022-10-21T05:31:38.282Z,27.13
2022-10-21T05:34:28.058Z,28.73
2022-10-21T05:37:18.153Z,28.17
2022-10-21T05:40:08.735Z,21.75
2022-10-21T05:42:58.788Z,27.45
2022-10-21T05:45:49.185Z,25.85
2022-10-21T05:48:39.407Z,28.00
2022-10-21T05:51:29.655Z,23.48
2022-10-21T05:54:20.130Z,21.30
2022-10-21T05:57:10.060Z,29.10
2022-10-21T05:59:59.991Z,84.13
2022-10-21T06:02:50.282Z,44.90
2022-10-21T06:05:40.289Z,27.42
2022-10-21T06:08:31.916Z,33.30
2022-10-21T06:11:22.058Z,28.58
2022-10-21T06:14:11.835Z,30.73
2022-10-21T06:17:03.247Z,29.27
2022-10-21T06:19:53.193Z,24.67
2022-10-21T06:22:43.092Z,24.73
2022-10-21T06:25:33.204Z,24.13
2022-10-21T06:28:23.289Z,22.60
2022-10-21T06:31:18.334Z,25.02
2022-10-21T06:34:09.060Z,21.05
2022-10-21T06:36:58.995Z,23.80
2022-10-21T06:39:48.922Z,24.48
2022-10-21T06:42:39.160Z,29.92
2022-10-21T06:45:29.023Z,26.00
2022-10-21T06:48:18.879Z,25.85
2022-10-21T06:51:14.845Z,27.10
2022-10-21T06:54:04.769Z,29.38
2022-10-21T06:56:54.774Z,25.13
2022-10-21T06:59:46.979Z,36.53
2022-10-21T07:02:37.585Z,27.60
2022-10-21T07:05:27.921Z,26.27
2022-10-21T07:08:19.799Z,27.08
2022-10-21T07:11:13.624Z,17.00
2022-10-21T07:14:03.887Z,22.55
2022-10-21T07:16:53.979Z,20.92
2022-10-21T07:19:43.929Z,19.35
2022-10-21T07:22:35.568Z,28.65
2022-10-21T07:25:25.773Z,30.60
2022-10-21T07:28:15.834Z,23.23
2022-10-21T07:31:05.968Z,21.02
2022-10-21T07:33:56.307Z,27.17
2022-10-21T07:36:48.344Z,21.33
2022-10-21T07:39:38.476Z,23.27
2022-10-21T07:42:28.672Z,25.52
2022-10-21T07:45:18.803Z,30.20
2022-10-21T07:48:09.731Z,25.75
2022-10-21T07:51:08.533Z,26.20
2022-10-21T07:53:59.726Z,29.88
2022-10-21T07:56:51.686Z,26.67
2022-10-21T07:59:41.488Z,24.45
2022-10-21T08:02:31.593Z,23.20
2022-10-21T08:05:22.505Z,24.20
2022-10-21T08:08:13.167Z,23.23
2022-10-21T08:11:04.203Z,24.63
2022-10-21T08:13:55.170Z,22.23
2022-10-21T08:16:45.435Z,39.92
2022-10-21T08:19:35.602Z,29.52
2022-10-21T08:22:25.861Z,28.83
2022-10-21T08:25:16.798Z,21.02
2022-10-21T08:28:06.924Z,22.48
2022-10-21T08:31:23.361Z,24.45
2022-10-21T08:34:17.324Z,30.92
2022-10-21T08:37:09.037Z,23.98
2022-10-21T08:39:59.249Z,30.90
2022-10-21T08:42:49.660Z,28.42
2022-10-21T08:45:58.795Z,28.10
2022-10-21T08:49:01.415Z,25.40
2022-10-21T08:52:01.144Z,25.35
2022-10-21T08:55:03.079Z,26.45
2022-10-21T08:57:54.565Z,24.27
2022-10-21T09:00:48.517Z,19.75
2022-10-21T09:03:47.145Z,34.10
2022-10-21T09:06:50.406Z,30.13
2022-10-21T09:09:51.229Z,19.00
2022-10-21T09:13:01.620Z,22.38
2022-10-21T09:16:14.670Z,19.60
2022-10-21T09:19:38.982Z,23.58
2022-10-21T09:22:50.606Z,24.40
2022-10-21T09:25:56.494Z,19.40
2022-10-21T09:28:48.225Z,22.65
2022-10-21T09:31:38.676Z,24.75
2022-10-21T09:34:43.583Z,18.02
2022-10-21T09:37:41.056Z,25.00
2022-10-21T09:40:33.871Z,18.63
2022-10-21T09:43:26.390Z,20.27
2022-10-21T09:46:18.483Z,29.92
2022-10-21T09:50:05.829Z,26.45
2022-10-21T09:52:38.519Z,22.70
2022-10-21T09:55:29.821Z,24.13
2022-10-21T09:58:36.543Z,20.50
2022-10-21T10:01:28.632Z,19.95
2022-10-21T10:04:30.604Z,25.77
2022-10-21T10:07:27.323Z,15.90
2022-10-21T10:10:34.156Z,23.52
2022-10-21T10:13:24.698Z,20.50
2022-10-21T10:16:35.144Z,14.68
2022-10-21T10:19:28.032Z,11.13
2022-10-21T10:22:18.125Z,11.73
2022-10-21T10:25:09.313Z,14.00
2022-10-21T10:28:04.320Z,20.02
2022-10-21T10:30:56.514Z,12.82
2022-10-21T10:33:58.660Z,13.63
2022-10-21T10:36:50.451Z,21.75
2022-10-21T10:39:42.824Z,24.40
2022-10-21T10:42:37.652Z,19.77
2022-10-21T10:45:28.450Z,20.17
2022-10-21T10:48:24.047Z,19.83
2022-10-21T10:51:33.033Z,22.05
2022-10-21T10:54:27.292Z,14.68
2022-10-21T10:57:34.000Z,15.50
2022-10-21T11:00:43.422Z,14.50
2022-10-21T11:03:57.359Z,14.13
2022-10-21T11:06:56.301Z,12.15
2022-10-21T11:09:47.218Z,13.75
2022-10-21T11:12:38.004Z,13.02
2022-10-21T11:15:55.983Z,13.98
2022-10-21T11:19:02.978Z,17.08
2022-10-21T11:22:13.328Z,11.30
2022-10-21T11:25:09.761Z,13.65
2022-10-21T11:28:21.589Z,9.25
2022-10-21T11:31:30.719Z,11.68
2022-10-21T11:34:53.001Z,9.95
2022-10-21T11:37:55.024Z,8.10
2022-10-21T11:41:06.694Z,5.80
2022-10-21T11:44:19.975Z,6.35
2022-10-21T11:47:20.551Z,11.15
2022-10-21T11:50:22.073Z,5.82
2022-10-21T11:53:15.110Z,7.78
2022-10-21T11:56:43.065Z,8.10
2022-10-21T12:00:00.305Z,6.03
2022-10-21T12:03:28.849Z,4.28
2022-10-21T12:06:41.514Z,3.08
2022-10-21T12:09:44.245Z,6.68
2022-10-21T12:12:39.505Z,4.15
2022-10-21T12:15:43.601Z,3.15
2022-10-21T12:18:37.442Z,3.85
2022-10-21T12:24:43.377Z,5.40
2022-10-21T12:27:56.332Z,7.40
2022-10-21T12:30:50.773Z,4.28
2022-10-21T12:33:44.556Z,4.68
2022-10-21T12:36:40.647Z,6.00
2022-10-21T12:39:33.515Z,3.47
2022-10-21T12:42:28.472Z,4.10
2022-10-21T12:45:33.400Z,2.83
2022-10-21T12:48:48.426Z,5.82
2022-10-21T12:51:39.199Z,5.63
2022-10-21T12:54:34.599Z,2.30
2022-10-21T12:57:40.082Z,1.33
2022-10-21T13:00:30.481Z,3.58
2022-10-21T13:03:41.865Z,4.82
2022-10-21T13:06:51.806Z,3.45
2022-10-21T13:09:51.258Z,2.92
2022-10-21T13:12:41.525Z,3.03
2022-10-21T13:15:31.705Z,3.95
2022-10-21T13:19:00.509Z,3.25
2022-10-21T13:22:01.161Z,3.47
2022-10-21T13:24:51.654Z,4.00
2022-10-21T13:27:53.197Z,8.60
2022-10-21T13:30:49.156Z,2.90
2022-10-21T13:33:39.155Z,3.75
2022-10-21T13:36:40.015Z,2.90
2022-10-21T13:39:34.602Z,4.57
2022-10-21T13:42:31.017Z,3.00
2022-10-21T13:45:36.520Z,2.00
2022-10-21T13:48:26.697Z,5.28
2022-10-21T13:51:32.161Z,4.18
2022-10-21T13:54:22.187Z,5.20
2022-10-21T13:57:17.791Z,3.78
2022-10-21T14:00:17.647Z,2.53
2022-10-21T14:03:07.989Z,5.47
2022-10-21T14:06:00.696Z,1.85
2022-10-21T14:08:50.885Z,3.30
2022-10-21T14:11:48.605Z,1.58
2022-10-21T14:14:39.565Z,2.05
2022-10-21T14:17:29.528Z,3.67
2022-10-21T14:20:26.084Z,2.00
2022-10-21T14:23:19.768Z,5.40
2022-10-21T14:29:01.652Z,5.30
2022-10-21T14:31:52.078Z,1.13
2022-10-21T14:35:07.115Z,2.25
2022-10-21T14:38:04.613Z,1.92
2022-10-21T14:41:04.668Z,3.25
2022-10-21T14:43:57.590Z,5.05
2022-10-21T14:46:50.748Z,3.45
2022-10-21T14:49:48.961Z,2.73
2022-10-21T14:52:42.941Z,4.47
2022-10-21T14:55:32.901Z,1.67
2022-10-21T14:58:28.589Z,6.93
2022-10-21T15:01:21.730Z,2.00
2022-10-21T15:04:52.361Z,4.20
2022-10-21T15:07:42.275Z,2.67
2022-10-21T15:10:33.781Z,4.78
2022-10-21T15:13:26.070Z,1.55
2022-10-21T15:16:20.033Z,7.93
2022-10-21T15:25:01.361Z,4.68
2022-10-21T15:27:51.776Z,1.55
2022-10-21T15:30:42.394Z,3.97
2022-10-21T15:33:32.220Z,2.15
2022-10-21T15:36:23.731Z,6.32
2022-10-21T15:39:13.834Z,2.13
2022-10-21T15:42:05.473Z,3.20
2022-10-21T15:44:55.502Z,6.20
2022-10-21T15:47:52.495Z,3.33
2022-10-21T15:50:42.779Z,1.52
2022-10-21T15:53:32.750Z,1.30
2022-10-21T15:56:24.272Z,1.92
2022-10-21T15:59:21.023Z,1.20
2022-10-21T16:02:16.781Z,3.67
2022-10-21T16:05:09.083Z,2.83
2022-10-21T16:07:59.253Z,6.75
2022-10-21T16:10:49.968Z,5.25
2022-10-21T16:13:40.100Z,1.10
2022-10-21T16:16:30.435Z,2.40
2022-10-21T16:19:20.602Z,3.10
2022-10-21T16:22:22.344Z,1.90
2022-10-21T16:25:13.903Z,3.60
2022-10-21T16:28:04.814Z,4.10
2022-10-21T16:30:54.623Z,5.55
2022-10-21T16:33:45.146Z,3.90
2022-10-21T16:36:37.797Z,1.92
2022-10-21T16:39:27.973Z,3.03
2022-10-21T16:42:18.345Z,2.67
2022-10-21T16:45:08.859Z,3.83
2022-10-21T16:48:02.893Z,2.63
2022-10-21T16:50:53.218Z,3.05
2022-10-21T16:53:43.123Z,1.33
2022-10-21T16:56:33.523Z,4.95
2022-10-21T16:59:23.763Z,1.58
2022-10-21T17:02:16.656Z,2.63
2022-10-21T17:05:07.129Z,4.85
2022-10-21T17:07:58.595Z,1.95
2022-10-21T17:10:48.907Z,2.92
2022-10-21T17:13:39.288Z,2.55
2022-10-21T17:16:29.803Z,2.97
2022-10-21T17:19:20.171Z,1.25
2022-10-21T17:22:16.732Z,7.05
2022-10-21T17:25:07.017Z,3.90
2022-10-21T17:27:57.902Z,2.08
2022-10-21T17:30:48.089Z,3.53
2022-10-21T17:33:38.143Z,2.78
2022-10-21T17:36:28.041Z,2.67
2022-10-21T17:39:18.746Z,3.15
2022-10-21T17:42:13.916Z,7.05
2022-10-21T17:45:04.590Z,5.90
2022-10-21T17:47:54.623Z,3.15
2022-10-21T17:50:44.842Z,4.88
2022-10-21T17:53:36.158Z,3.35
2022-10-21T17:56:34.498Z,3.65
2022-10-21T17:59:25.291Z,1.67
2022-10-21T18:02:15.527Z,2.63
2022-10-21T18:05:07.144Z,4.57
2022-10-21T18:07:57.361Z,5.10
2022-10-21T18:10:55.478Z,4.30
2022-10-21T18:13:46.468Z,4.40
2022-10-21T18:16:37.248Z,4.18
2022-10-21T18:19:28.405Z,5.10
2022-10-21T18:22:18.683Z,3.55
2022-10-21T18:25:09.175Z,3.05
2022-10-21T18:27:59.124Z,3.38
2022-10-21T18:30:48.913Z,5.43
2022-10-21T18:33:38.871Z,2.30
2022-10-21T18:36:29.310Z,2.53
2022-10-21T18:39:19.580Z,4.32
2022-10-21T18:42:09.825Z,3.22
2022-10-21T18:44:59.948Z,3.63
2022-10-21T18:47:51.467Z,4.72
2022-10-21T18:50:41.592Z,12.38
2022-10-21T18:53:34.098Z,9.27
2022-10-21T18:56:26.728Z,3.20
2022-10-21T18:59:16.730Z,4.75
2022-10-21T19:02:10.574Z,9.07
2022-10-21T19:05:03.303Z,6.68
2022-10-21T19:07:53.730Z,5.00
2022-10-21T19:10:43.529Z,14.38
2022-10-21T19:13:33.429Z,10.15
2022-10-21T19:16:23.416Z,7.00
2022-10-21T19:19:15.800Z,6.50
2022-10-21T19:22:06.091Z,3.45
2022-10-21T19:24:56.634Z,5.75
2022-10-21T19:27:50.494Z,3.95
2022-10-21T19:30:45.238Z,6.82
2022-10-21T19:33:35.475Z,5.28
2022-10-21T19:36:25.897Z,5.10
2022-10-21T19:39:16.318Z,5.72
2022-10-21T19:42:07.410Z,3.35
2022-10-21T19:44:57.392Z,9.07
2022-10-21T19:47:47.374Z,8.45
2022-10-21T19:50:44.498Z,9.85
2022-10-21T19:53:35.118Z,4.30
2022-10-21T19:56:29.685Z,7.57
2022-10-21T19:59:22.779Z,4.07
2022-10-21T20:02:12.662Z,4.93
2022-10-21T20:05:02.621Z,6.57
2022-10-21T20:07:52.708Z,3.15
2022-10-21T20:10:42.592Z,7.75
2022-10-21T20:13:32.501Z,4.85
2022-10-21T20:16:24.040Z,4.57
2022-10-21T20:19:14.884Z,4.38
2022-10-21T20:22:04.980Z,5.43
2022-10-21T20:24:55.171Z,3.45
2022-10-21T20:27:45.355Z,6.30
2022-10-21T20:30:35.469Z,4.63
2022-10-21T20:33:27.441Z,13.25
2022-10-21T20:36:26.937Z,5.95
2022-10-21T20:39:17.248Z,9.38
2022-10-21T20:42:07.211Z,6.65
2022-10-21T20:44:57.033Z,2.55
2022-10-21T20:47:46.726Z,6.38
2022-10-21T20:50:36.775Z,9.57
2022-10-21T20:53:31.020Z,4.95
2022-10-21T20:56:22.292Z,12.15
2022-10-21T20:59:15.368Z,8.05
2022-10-21T21:02:05.385Z,2.55
2022-10-21T21:04:55.691Z,4.82
2022-10-21T21:07:45.509Z,6.47
2022-10-21T21:10:35.998Z,2.72
2022-10-21T21:13:26.376Z,5.40
2022-10-21T21:16:21.892Z,2.88
2022-10-21T21:19:13.322Z,4.68
2022-10-21T21:22:04.916Z,6.72
2022-10-21T21:24:54.896Z,4.13
2022-10-21T21:27:44.845Z,6.70
2022-10-21T21:30:34.703Z,6.35
2022-10-21T21:33:24.681Z,5.75
2022-10-21T21:36:16.503Z,6.60
2022-10-21T21:39:07.330Z,5.75
2022-10-21T21:41:57.632Z,4.63
2022-10-21T21:44:47.720Z,6.30
2022-10-21T21:47:37.601Z,6.95
2022-10-21T21:50:27.617Z,6.07
2022-10-21T21:53:19.733Z,3.45
2022-10-21T21:56:10.294Z,6.57
2022-10-21T21:59:00.104Z,5.55
2022-10-21T22:01:49.995Z,6.03
2022-10-21T22:04:40.424Z,7.00
2022-10-21T22:07:32.891Z,7.70
2022-10-21T22:10:22.974Z,6.35
2022-10-21T22:13:13.009Z,6.53
2022-10-21T22:16:04.233Z,5.45
2022-10-21T22:18:54.804Z,3.53
2022-10-21T22:21:45.100Z,7.78
2022-10-21T22:24:35.360Z,2.72
2022-10-21T22:27:25.802Z,1.60
2022-10-21T22:30:16.009Z,5.10
2022-10-21T22:33:05.931Z,1.70
2022-10-21T22:35:56.494Z,1.00
2022-10-21T22:38:46.558Z,1.08
2022-10-21T22:41:36.991Z,3.90
2022-10-21T22:44:27.742Z,3.50
2022-10-21T22:47:17.930Z,0.82
2022-10-21T22:50:08.572Z,0.45
2022-10-21T22:52:58.587Z,0.93
2022-10-21T22:55:48.774Z,2.50
2022-10-21T22:58:39.007Z,2.58
2022-10-21T23:01:30.424Z,2.53
2022-10-21T23:04:20.594Z,2.88
2022-10-21T23:07:10.369Z,2.88
2022-10-21T23:10:01.233Z,1.63
2022-10-21T23:12:51.577Z,1.10
2022-10-21T23:15:41.406Z,3.00
2022-10-21T23:18:31.418Z,3.10
2022-10-21T23:21:21.738Z,1.67
2022-10-21T23:24:12.041Z,3.75
2022-10-21T23:27:01.889Z,5.55
2022-10-21T23:29:51.738Z,0.85
2022-10-21T23:32:42.135Z,0.63
2022-10-21T23:35:32.823Z,0.63
2022-10-21T23:38:22.710Z,0.63
2022-10-21T23:41:12.652Z,0.88
2022-10-21T23:44:03.021Z,3.00
2022-10-21T23:46:53.244Z,3.75
2022-10-21T23:49:43.208Z,0.80
2022-10-21T23:52:33.065Z,2.30
2022-10-21T23:55:23.105Z,0.63
2022-10-21T23:58:13.254Z,0.73
